sensor_id;sensor_type;location;lat;lon;timestamp;temperature;humidity
22850;DHT22;11591;44.792;10.358;2022-12-18T00:01:17;6.50;99.90
22850;DHT22;11591;44.792;10.358;2022-12-18T00:03:43;6.50;99.90
22850;DHT22;11591;44.792;10.358;2022-12-18T00:06:09;6.50;99.90
22850;DHT22;11591;44.792;10.358;2022-12-18T00:08:35;6.50;99.90
22850;DHT22;11591;44.792;10.358;2022-12-18T00:11:05;6.60;99.90
22850;DHT22;11591;44.792;10.358;2022-12-18T00:13:31;6.50;99.90
22850;DHT22;11591;44.792;10.358;2022-12-18T00:16:02;6.60;99.90
22850;DHT22;11591;44.792;10.358;2022-12-18T00:18:28;6.60;99.90
22850;DHT22;11591;44.792;10.358;2022-12-18T00:20:54;6.50;99.90
22850;DHT22;11591;44.792;10.358;2022-12-18T00:23:23;6.50;99.90
22850;DHT22;11591;44.792;10.358;2022-12-18T00:25:49;6.50;99.90
22850;DHT22;11591;44.792;10.358;2022-12-18T00:28:15;6.50;99.90
22850;DHT22;11591;44.792;10.358;2022-12-18T00:30:40;6.50;99.90
22850;DHT22;11591;44.792;10.358;2022-12-18T00:33:07;6.50;99.90
22850;DHT22;11591;44.792;10.358;2022-12-18T00:35:32;6.60;99.90
22850;DHT22;11591;44.792;10.358;2022-12-18T00:37:58;6.50;99.90
22850;DHT22;11591;44.792;10.358;2022-12-18T00:40:24;6.60;99.90
22850;DHT22;11591;44.792;10.358;2022-12-18T00:42:50;6.60;99.90
22850;DHT22;11591;44.792;10.358;2022-12-18T00:45:30;6.60;99.90
22850;DHT22;11591;44.792;10.358;2022-12-18T00:47:56;6.60;99.90
22850;DHT22;11591;44.792;10.358;2022-12-18T00:50:24;6.60;99.90
22850;DHT22;11591;44.792;10.358;2022-12-18T00:52:50;6.70;99.90
22850;DHT22;11591;44.792;10.358;2022-12-18T00:55:16;6.80;99.90
22850;DHT22;11591;44.792;10.358;2022-12-18T00:57:42;6.80;99.90
22850;DHT22;11591;44.792;10.358;2022-12-18T01:00:10;6.80;99.90
22850;DHT22;11591;44.792;10.358;2022-12-18T01:02:36;6.80;99.90
22850;DHT22;11591;44.792;10.358;2022-12-18T01:05:02;6.90;99.90
22850;DHT22;11591;44.792;10.358;2022-12-18T01:07:28;6.90;99.90
22850;DHT22;11591;44.792;10.358;2022-12-18T01:09:54;6.80;99.90
22850;DHT22;11591;44.792;10.358;2022-12-18T01:12:20;6.90;99.90
22850;DHT22;11591;44.792;10.358;2022-12-18T01:14:49;6.90;99.90
22850;DHT22;11591;44.792;10.358;2022-12-18T01:17:15;6.90;99.90
22850;DHT22;11591;44.792;10.358;2022-12-18T01:19:41;6.90;99.90
22850;DHT22;11591;44.792;10.358;2022-12-18T01:22:07;6.90;99.90
22850;DHT22;11591;44.792;10.358;2022-12-18T01:24:33;6.90;99.90
22850;DHT22;11591;44.792;10.358;2022-12-18T01:26:59;6.90;99.90
22850;DHT22;11591;44.792;10.358;2022-12-18T01:29:24;6.90;99.90
22850;DHT22;11591;44.792;10.358;2022-12-18T01:31:50;6.90;99.90
22850;DHT22;11591;44.792;10.358;2022-12-18T01:34:17;7.00;99.90
22850;DHT22;11591;44.792;10.358;2022-12-18T01:36:42;7.00;99.90
22850;DHT22;11591;44.792;10.358;2022-12-18T01:39:12;7.00;99.90
22850;DHT22;11591;44.792;10.358;2022-12-18T01:41:41;7.00;99.90
22850;DHT22;11591;44.792;10.358;2022-12-18T01:55:45;6.80;99.90
22850;DHT22;11591;44.792;10.358;2022-12-18T01:58:12;6.70;99.90
22850;DHT22;11591;44.792;10.358;2022-12-18T02:00:38;6.50;99.90
22850;DHT22;11591;44.792;10.358;2022-12-18T02:03:03;6.40;99.90
22850;DHT22;11591;44.792;10.358;2022-12-18T02:05:54;6.40;99.90
22850;DHT22;11591;44.792;10.358;2022-12-18T02:08:45;6.30;99.90
22850;DHT22;11591;44.792;10.358;2022-12-18T02:11:56;6.40;99.90
22850;DHT22;11591;44.792;10.358;2022-12-18T02:14:48;6.40;99.90
22850;DHT22;11591;44.792;10.358;2022-12-18T02:17:24;6.40;99.90
22850;DHT22;11591;44.792;10.358;2022-12-18T02:26:29;6.40;99.90
22850;DHT22;11591;44.792;10.358;2022-12-18T02:29:21;6.20;99.90
22850;DHT22;11591;44.792;10.358;2022-12-18T02:31:57;6.10;99.90
22850;DHT22;11591;44.792;10.358;2022-12-18T02:34:28;6.00;99.90
22850;DHT22;11591;44.792;10.358;2022-12-18T02:36:56;6.00;99.90
22850;DHT22;11591;44.792;10.358;2022-12-18T02:39:25;5.90;99.90
22850;DHT22;11591;44.792;10.358;2022-12-18T02:42:02;5.90;99.90
22850;DHT22;11591;44.792;10.358;2022-12-18T02:44:43;6.00;99.90
22850;DHT22;11591;44.792;10.358;2022-12-18T02:47:16;6.00;99.90
22850;DHT22;11591;44.792;10.358;2022-12-18T02:50:29;6.00;99.90
22850;DHT22;11591;44.792;10.358;2022-12-18T03:04:06;5.60;99.90
22850;DHT22;11591;44.792;10.358;2022-12-18T03:06:41;5.50;99.90
22850;DHT22;11591;44.792;10.358;2022-12-18T03:09:17;5.30;99.90
22850;DHT22;11591;44.792;10.358;2022-12-18T03:11:51;5.30;99.90
22850;DHT22;11591;44.792;10.358;2022-12-18T03:15:20;5.20;99.90
22850;DHT22;11591;44.792;10.358;2022-12-18T03:18:08;5.10;99.90
22850;DHT22;11591;44.792;10.358;2022-12-18T03:20:37;5.10;99.90
22850;DHT22;11591;44.792;10.358;2022-12-18T03:23:12;5.00;99.90
22850;DHT22;11591;44.792;10.358;2022-12-18T03:25:41;5.00;99.90
22850;DHT22;11591;44.792;10.358;2022-12-18T03:28:15;5.00;99.90
22850;DHT22;11591;44.792;10.358;2022-12-18T03:30:43;4.90;99.90
22850;DHT22;11591;44.792;10.358;2022-12-18T03:34:15;4.80;99.90
22850;DHT22;11591;44.792;10.358;2022-12-18T03:36:17;4.80;99.90
22850;DHT22;11591;44.792;10.358;2022-12-18T03:38:43;4.80;99.90
22850;DHT22;11591;44.792;10.358;2022-12-18T03:41:21;4.90;99.90
22850;DHT22;11591;44.792;10.358;2022-12-18T03:52:40;5.20;99.90
22850;DHT22;11591;44.792;10.358;2022-12-18T03:55:09;5.30;99.90
22850;DHT22;11591;44.792;10.358;2022-12-18T03:57:38;5.30;99.90
22850;DHT22;11591;44.792;10.358;2022-12-18T04:00:16;5.30;99.90
22850;DHT22;11591;44.792;10.358;2022-12-18T04:03:01;5.30;99.90
22850;DHT22;11591;44.792;10.358;2022-12-18T04:05:37;5.30;99.90
22850;DHT22;11591;44.792;10.358;2022-12-18T04:08:04;5.30;99.90
22850;DHT22;11591;44.792;10.358;2022-12-18T04:10:34;5.20;99.90
22850;DHT22;11591;44.792;10.358;2022-12-18T04:13:01;5.20;99.90
22850;DHT22;11591;44.792;10.358;2022-12-18T04:15:28;5.20;99.90
22850;DHT22;11591;44.792;10.358;2022-12-18T04:17:54;5.20;99.90
22850;DHT22;11591;44.792;10.358;2022-12-18T04:20:24;5.20;99.90
22850;DHT22;11591;44.792;10.358;2022-12-18T04:22:49;5.20;99.90
22850;DHT22;11591;44.792;10.358;2022-12-18T04:25:18;5.20;99.90
22850;DHT22;11591;44.792;10.358;2022-12-18T04:27:55;5.20;99.90
22850;DHT22;11591;44.792;10.358;2022-12-18T04:30:21;5.30;99.90
22850;DHT22;11591;44.792;10.358;2022-12-18T04:32:48;5.30;99.90
22850;DHT22;11591;44.792;10.358;2022-12-18T04:35:14;5.30;99.90
22850;DHT22;11591;44.792;10.358;2022-12-18T04:37:42;5.30;99.90
22850;DHT22;11591;44.792;10.358;2022-12-18T04:40:09;5.30;99.90
22850;DHT22;11591;44.792;10.358;2022-12-18T04:42:40;5.20;99.90
22850;DHT22;11591;44.792;10.358;2022-12-18T04:45:07;5.30;99.90
22850;DHT22;11591;44.792;10.358;2022-12-18T04:47:33;5.20;99.90
22850;DHT22;11591;44.792;10.358;2022-12-18T04:49:59;5.20;99.90
22850;DHT22;11591;44.792;10.358;2022-12-18T04:52:24;5.20;99.90
22850;DHT22;11591;44.792;10.358;2022-12-18T04:54:50;5.20;99.90
22850;DHT22;11591;44.792;10.358;2022-12-18T04:57:16;5.20;99.90
22850;DHT22;11591;44.792;10.358;2022-12-18T04:59:44;5.20;99.90
22850;DHT22;11591;44.792;10.358;2022-12-18T05:02:10;5.20;99.90
22850;DHT22;11591;44.792;10.358;2022-12-18T05:04:35;5.10;99.90
22850;DHT22;11591;44.792;10.358;2022-12-18T05:07:01;5.10;99.90
22850;DHT22;11591;44.792;10.358;2022-12-18T05:09:27;5.10;99.90
22850;DHT22;11591;44.792;10.358;2022-12-18T05:11:53;5.10;99.90
22850;DHT22;11591;44.792;10.358;2022-12-18T05:14:19;5.10;99.90
22850;DHT22;11591;44.792;10.358;2022-12-18T05:16:45;5.10;99.90
22850;DHT22;11591;44.792;10.358;2022-12-18T05:19:10;5.00;99.90
22850;DHT22;11591;44.792;10.358;2022-12-18T05:21:36;5.10;99.90
22850;DHT22;11591;44.792;10.358;2022-12-18T05:24:02;5.00;99.90
22850;DHT22;11591;44.792;10.358;2022-12-18T05:26:28;5.10;99.90
22850;DHT22;11591;44.792;10.358;2022-12-18T05:28:54;4.90;99.90
22850;DHT22;11591;44.792;10.358;2022-12-18T05:31:19;4.90;99.90
22850;DHT22;11591;44.792;10.358;2022-12-18T05:33:45;4.90;99.90
22850;DHT22;11591;44.792;10.358;2022-12-18T05:36:11;4.90;99.90
22850;DHT22;11591;44.792;10.358;2022-12-18T05:38:38;4.80;99.90
22850;DHT22;11591;44.792;10.358;2022-12-18T05:41:05;4.90;99.90
22850;DHT22;11591;44.792;10.358;2022-12-18T05:43:31;4.90;99.90
22850;DHT22;11591;44.792;10.358;2022-12-18T05:46:05;4.80;99.90
22850;DHT22;11591;44.792;10.358;2022-12-18T05:48:31;4.80;99.90
22850;DHT22;11591;44.792;10.358;2022-12-18T05:51:06;4.80;99.90
22850;DHT22;11591;44.792;10.358;2022-12-18T05:53:33;4.80;99.90
22850;DHT22;11591;44.792;10.358;2022-12-18T05:56:06;4.80;99.90
22850;DHT22;11591;44.792;10.358;2022-12-18T05:58:33;4.90;99.90
22850;DHT22;11591;44.792;10.358;2022-12-18T06:01:10;4.90;99.90
22850;DHT22;11591;44.792;10.358;2022-12-18T06:03:36;4.90;99.90
22850;DHT22;11591;44.792;10.358;2022-12-18T06:06:02;4.90;99.90
22850;DHT22;11591;44.792;10.358;2022-12-18T06:08:28;5.00;99.90
22850;DHT22;11591;44.792;10.358;2022-12-18T06:10:54;5.00;99.90
22850;DHT22;11591;44.792;10.358;2022-12-18T06:13:20;5.00;99.90
22850;DHT22;11591;44.792;10.358;2022-12-18T06:15:46;5.00;99.90
22850;DHT22;11591;44.792;10.358;2022-12-18T06:18:12;5.00;99.90
22850;DHT22;11591;44.792;10.358;2022-12-18T06:20:38;5.00;99.90
22850;DHT22;11591;44.792;10.358;2022-12-18T06:23:07;5.10;99.90
22850;DHT22;11591;44.792;10.358;2022-12-18T06:25:33;5.00;99.90
22850;DHT22;11591;44.792;10.358;2022-12-18T06:27:59;5.00;99.90
22850;DHT22;11591;44.792;10.358;2022-12-18T06:30:25;5.00;99.90
22850;DHT22;11591;44.792;10.358;2022-12-18T06:32:50;5.00;99.90
22850;DHT22;11591;44.792;10.358;2022-12-18T06:35:16;5.00;99.90
22850;DHT22;11591;44.792;10.358;2022-12-18T06:37:42;4.90;99.90
22850;DHT22;11591;44.792;10.358;2022-12-18T06:40:08;4.90;99.90
22850;DHT22;11591;44.792;10.358;2022-12-18T06:42:34;4.90;99.90
22850;DHT22;11591;44.792;10.358;2022-12-18T06:45:00;4.90;99.90
22850;DHT22;11591;44.792;10.358;2022-12-18T06:47:25;4.80;99.90
22850;DHT22;11591;44.792;10.358;2022-12-18T06:49:51;4.70;99.90
22850;DHT22;11591;44.792;10.358;2022-12-18T06:52:17;4.80;99.90
22850;DHT22;11591;44.792;10.358;2022-12-18T06:54:43;4.80;99.90
22850;DHT22;11591;44.792;10.358;2022-12-18T06:57:08;4.90;99.90
22850;DHT22;11591;44.792;10.358;2022-12-18T06:59:34;4.80;99.90
22850;DHT22;11591;44.792;10.358;2022-12-18T07:02:00;4.70;99.90
22850;DHT22;11591;44.792;10.358;2022-12-18T07:04:29;4.70;99.90
22850;DHT22;11591;44.792;10.358;2022-12-18T07:06:55;4.80;99.90
22850;DHT22;11591;44.792;10.358;2022-12-18T07:09:21;4.80;99.90
22850;DHT22;11591;44.792;10.358;2022-12-18T07:11:47;4.90;99.90
22850;DHT22;11591;44.792;10.358;2022-12-18T07:14:13;4.90;99.90
22850;DHT22;11591;44.792;10.358;2022-12-18T07:16:39;4.90;99.90
22850;DHT22;11591;44.792;10.358;2022-12-18T07:19:05;4.90;99.90
22850;DHT22;11591;44.792;10.358;2022-12-18T07:21:30;5.00;99.90
22850;DHT22;11591;44.792;10.358;2022-12-18T07:23:56;5.00;99.90
22850;DHT22;11591;44.792;10.358;2022-12-18T07:26:22;4.90;99.90
22850;DHT22;11591;44.792;10.358;2022-12-18T07:28:48;4.90;99.90
22850;DHT22;11591;44.792;10.358;2022-12-18T07:31:18;4.90;99.90
22850;DHT22;11591;44.792;10.358;2022-12-18T07:33:44;4.90;99.90
22850;DHT22;11591;44.792;10.358;2022-12-18T07:36:11;4.80;99.90
22850;DHT22;11591;44.792;10.358;2022-12-18T07:38:37;4.80;99.90
22850;DHT22;11591;44.792;10.358;2022-12-18T07:41:09;4.90;99.90
22850;DHT22;11591;44.792;10.358;2022-12-18T07:43:35;5.00;99.90
22850;DHT22;11591;44.792;10.358;2022-12-18T07:46:02;5.00;99.90
22850;DHT22;11591;44.792;10.358;2022-12-18T07:48:28;5.00;99.90
22850;DHT22;11591;44.792;10.358;2022-12-18T07:51:02;4.90;99.90
22850;DHT22;11591;44.792;10.358;2022-12-18T07:53:28;4.80;99.90
22850;DHT22;11591;44.792;10.358;2022-12-18T07:55:58;4.70;99.90
22850;DHT22;11591;44.792;10.358;2022-12-18T07:58:24;4.70;99.90
22850;DHT22;11591;44.792;10.358;2022-12-18T08:00:51;4.60;99.90
22850;DHT22;11591;44.792;10.358;2022-12-18T08:03:18;4.60;99.90
22850;DHT22;11591;44.792;10.358;2022-12-18T08:05:44;4.70;99.90
22850;DHT22;11591;44.792;10.358;2022-12-18T08:08:10;4.90;99.90
22850;DHT22;11591;44.792;10.358;2022-12-18T08:10:36;4.80;99.90
22850;DHT22;11591;44.792;10.358;2022-12-18T08:13:02;4.90;99.90
22850;DHT22;11591;44.792;10.358;2022-12-18T08:15:28;4.80;99.90
22850;DHT22;11591;44.792;10.358;2022-12-18T08:17:56;4.80;99.90
22850;DHT22;11591;44.792;10.358;2022-12-18T08:20:22;4.90;99.90
22850;DHT22;11591;44.792;10.358;2022-12-18T08:22:51;4.90;99.90
22850;DHT22;11591;44.792;10.358;2022-12-18T08:25:17;5.00;99.90
22850;DHT22;11591;44.792;10.358;2022-12-18T08:27:43;5.00;99.90
22850;DHT22;11591;44.792;10.358;2022-12-18T08:30:09;5.00;99.90
22850;DHT22;11591;44.792;10.358;2022-12-18T08:32:35;5.00;99.90
22850;DHT22;11591;44.792;10.358;2022-12-18T08:35:01;5.00;99.90
22850;DHT22;11591;44.792;10.358;2022-12-18T08:37:27;5.10;99.90
22850;DHT22;11591;44.792;10.358;2022-12-18T08:39:53;5.10;99.90
22850;DHT22;11591;44.792;10.358;2022-12-18T08:42:19;5.20;99.90
22850;DHT22;11591;44.792;10.358;2022-12-18T08:45:04;5.30;99.90
22850;DHT22;11591;44.792;10.358;2022-12-18T08:47:30;5.30;99.90
22850;DHT22;11591;44.792;10.358;2022-12-18T08:49:55;5.10;99.90
22850;DHT22;11591;44.792;10.358;2022-12-18T08:52:21;5.00;99.90
22850;DHT22;11591;44.792;10.358;2022-12-18T08:54:47;4.90;99.90
22850;DHT22;11591;44.792;10.358;2022-12-18T08:57:13;5.10;99.90
22850;DHT22;11591;44.792;10.358;2022-12-18T08:59:38;5.10;99.90
22850;DHT22;11591;44.792;10.358;2022-12-18T09:02:04;5.20;99.90
22850;DHT22;11591;44.792;10.358;2022-12-18T09:04:30;5.30;99.90
22850;DHT22;11591;44.792;10.358;2022-12-18T09:06:56;5.40;99.90
22850;DHT22;11591;44.792;10.358;2022-12-18T09:09:21;5.50;99.90
22850;DHT22;11591;44.792;10.358;2022-12-18T09:11:47;5.60;99.90
22850;DHT22;11591;44.792;10.358;2022-12-18T09:14:13;5.60;99.90
22850;DHT22;11591;44.792;10.358;2022-12-18T09:16:39;5.70;99.90
22850;DHT22;11591;44.792;10.358;2022-12-18T09:19:05;5.70;99.90
22850;DHT22;11591;44.792;10.358;2022-12-18T09:21:33;5.70;99.90
22850;DHT22;11591;44.792;10.358;2022-12-18T09:24:00;5.70;99.90
22850;DHT22;11591;44.792;10.358;2022-12-18T09:26:26;5.80;99.90
22850;DHT22;11591;44.792;10.358;2022-12-18T09:28:52;5.80;99.90
22850;DHT22;11591;44.792;10.358;2022-12-18T09:31:20;5.80;99.90
22850;DHT22;11591;44.792;10.358;2022-12-18T09:33:46;5.70;99.90
22850;DHT22;11591;44.792;10.358;2022-12-18T09:36:15;5.80;99.90
22850;DHT22;11591;44.792;10.358;2022-12-18T09:38:42;5.80;99.90
22850;DHT22;11591;44.792;10.358;2022-12-18T09:41:33;5.80;99.90
22850;DHT22;11591;44.792;10.358;2022-12-18T09:44:10;5.80;99.90
22850;DHT22;11591;44.792;10.358;2022-12-18T09:46:41;5.80;99.90
22850;DHT22;11591;44.792;10.358;2022-12-18T09:49:14;5.80;99.90
22850;DHT22;11591;44.792;10.358;2022-12-18T09:51:52;5.90;99.90
22850;DHT22;11591;44.792;10.358;2022-12-18T09:54:26;5.90;99.90
22850;DHT22;11591;44.792;10.358;2022-12-18T09:56:54;5.90;99.90
22850;DHT22;11591;44.792;10.358;2022-12-18T09:59:34;5.90;99.90
22850;DHT22;11591;44.792;10.358;2022-12-18T10:02:20;5.90;99.90
22850;DHT22;11591;44.792;10.358;2022-12-18T10:05:13;5.80;99.90
22850;DHT22;11591;44.792;10.358;2022-12-18T10:08:04;5.80;99.90
22850;DHT22;11591;44.792;10.358;2022-12-18T10:10:56;5.80;99.90
22850;DHT22;11591;44.792;10.358;2022-12-18T10:13:33;5.90;99.90
22850;DHT22;11591;44.792;10.358;2022-12-18T10:21:39;5.90;99.90
22850;DHT22;11591;44.792;10.358;2022-12-18T10:26:43;5.90;99.90
22850;DHT22;11591;44.792;10.358;2022-12-18T10:29:14;5.90;99.90
22850;DHT22;11591;44.792;10.358;2022-12-18T10:31:40;6.00;99.90
22850;DHT22;11591;44.792;10.358;2022-12-18T10:34:12;6.00;99.90
22850;DHT22;11591;44.792;10.358;2022-12-18T10:36:38;6.00;99.90
22850;DHT22;11591;44.792;10.358;2022-12-18T10:39:19;6.00;99.90
22850;DHT22;11591;44.792;10.358;2022-12-18T10:41:45;5.90;99.90
22850;DHT22;11591;44.792;10.358;2022-12-18T10:44:23;5.90;99.90
22850;DHT22;11591;44.792;10.358;2022-12-18T10:47:03;6.00;99.90
22850;DHT22;11591;44.792;10.358;2022-12-18T10:49:32;6.00;99.90
22850;DHT22;11591;44.792;10.358;2022-12-18T10:52:28;6.00;99.90
22850;DHT22;11591;44.792;10.358;2022-12-18T10:55:02;6.00;99.90
22850;DHT22;11591;44.792;10.358;2022-12-18T10:59:58;6.20;99.90
22850;DHT22;11591;44.792;10.358;2022-12-18T11:02:37;6.20;99.90
22850;DHT22;11591;44.792;10.358;2022-12-18T11:05:23;6.20;99.90
22850;DHT22;11591;44.792;10.358;2022-12-18T11:07:50;6.20;99.90
22850;DHT22;11591;44.792;10.358;2022-12-18T11:10:18;6.30;99.90
22850;DHT22;11591;44.792;10.358;2022-12-18T11:12:44;6.30;99.90
22850;DHT22;11591;44.792;10.358;2022-12-18T11:15:20;6.30;99.90
22850;DHT22;11591;44.792;10.358;2022-12-18T11:17:49;6.30;99.90
22850;DHT22;11591;44.792;10.358;2022-12-18T11:20:34;6.30;99.90
22850;DHT22;11591;44.792;10.358;2022-12-18T11:23:03;6.20;99.90
22850;DHT22;11591;44.792;10.358;2022-12-18T11:25:31;6.30;99.90
22850;DHT22;11591;44.792;10.358;2022-12-18T11:28:05;6.30;99.90
22850;DHT22;11591;44.792;10.358;2022-12-18T11:30:36;6.40;99.90
22850;DHT22;11591;44.792;10.358;2022-12-18T11:33:10;6.40;99.90
22850;DHT22;11591;44.792;10.358;2022-12-18T11:35:42;6.40;99.90
22850;DHT22;11591;44.792;10.358;2022-12-18T11:40:47;6.50;99.90
22850;DHT22;11591;44.792;10.358;2022-12-18T11:43:39;6.50;99.90
22850;DHT22;11591;44.792;10.358;2022-12-18T11:46:17;6.40;99.90
22850;DHT22;11591;44.792;10.358;2022-12-18T11:48:58;6.60;99.90
22850;DHT22;11591;44.792;10.358;2022-12-18T11:51:37;6.70;99.90
22850;DHT22;11591;44.792;10.358;2022-12-18T11:54:13;6.80;99.90
22850;DHT22;11591;44.792;10.358;2022-12-18T11:56:56;6.80;99.90
22850;DHT22;11591;44.792;10.358;2022-12-18T12:01:58;7.00;99.90
22850;DHT22;11591;44.792;10.358;2022-12-18T12:04:48;7.00;99.90
22850;DHT22;11591;44.792;10.358;2022-12-18T12:10:13;6.80;99.90
22850;DHT22;11591;44.792;10.358;2022-12-18T12:16:17;6.70;99.90
22850;DHT22;11591;44.792;10.358;2022-12-18T12:21:44;6.70;99.90
22850;DHT22;11591;44.792;10.358;2022-12-18T12:24:23;6.80;99.90
22850;DHT22;11591;44.792;10.358;2022-12-18T12:29:43;6.80;99.90
22850;DHT22;11591;44.792;10.358;2022-12-18T12:32:22;6.90;99.90
22850;DHT22;11591;44.792;10.358;2022-12-18T12:40:06;7.00;99.90
22850;DHT22;11591;44.792;10.358;2022-12-18T12:42:37;7.10;99.90
22850;DHT22;11591;44.792;10.358;2022-12-18T12:48:43;7.20;99.90
22850;DHT22;11591;44.792;10.358;2022-12-18T12:51:34;7.10;99.90
22850;DHT22;11591;44.792;10.358;2022-12-18T12:54:04;7.10;99.90
22850;DHT22;11591;44.792;10.358;2022-12-18T12:59:37;7.00;99.90
22850;DHT22;11591;44.792;10.358;2022-12-18T13:02:51;7.00;99.90
22850;DHT22;11591;44.792;10.358;2022-12-18T13:08:10;7.10;99.90
22850;DHT22;11591;44.792;10.358;2022-12-18T13:10:41;7.10;99.90
22850;DHT22;11591;44.792;10.358;2022-12-18T13:15:50;7.10;99.90
22850;DHT22;11591;44.792;10.358;2022-12-18T13:18:28;7.00;99.90
22850;DHT22;11591;44.792;10.358;2022-12-18T13:31:02;7.20;99.90
22850;DHT22;11591;44.792;10.358;2022-12-18T13:38:41;7.20;99.90
22850;DHT22;11591;44.792;10.358;2022-12-18T13:41:26;7.30;99.90
22850;DHT22;11591;44.792;10.358;2022-12-18T13:43:55;7.50;99.90
22850;DHT22;11591;44.792;10.358;2022-12-18T13:51:44;8.10;99.90
22850;DHT22;11591;44.792;10.358;2022-12-18T13:54:35;8.10;99.90
22850;DHT22;11591;44.792;10.358;2022-12-18T13:57:03;8.20;99.90
22850;DHT22;11591;44.792;10.358;2022-12-18T13:59:37;8.40;99.90
22850;DHT22;11591;44.792;10.358;2022-12-18T14:02:16;8.70;99.90
22850;DHT22;11591;44.792;10.358;2022-12-18T14:04:45;9.00;99.90
22850;DHT22;11591;44.792;10.358;2022-12-18T14:07:14;9.20;99.90
22850;DHT22;11591;44.792;10.358;2022-12-18T14:09:49;9.40;99.90
22850;DHT22;11591;44.792;10.358;2022-12-18T14:12:30;9.60;99.90
22850;DHT22;11591;44.792;10.358;2022-12-18T14:15:32;9.70;99.90
22850;DHT22;11591;44.792;10.358;2022-12-18T14:18:37;9.90;99.90
22850;DHT22;11591;44.792;10.358;2022-12-18T14:21:04;9.90;99.90
22850;DHT22;11591;44.792;10.358;2022-12-18T14:23:40;10.00;99.90
22850;DHT22;11591;44.792;10.358;2022-12-18T14:26:28;10.00;99.90
22850;DHT22;11591;44.792;10.358;2022-12-18T14:29:00;9.90;99.90
22850;DHT22;11591;44.792;10.358;2022-12-18T14:31:31;9.70;99.90
22850;DHT22;11591;44.792;10.358;2022-12-18T14:33:57;9.70;99.90
22850;DHT22;11591;44.792;10.358;2022-12-18T14:36:26;9.70;99.90
22850;DHT22;11591;44.792;10.358;2022-12-18T14:38:56;9.60;99.90
22850;DHT22;11591;44.792;10.358;2022-12-18T14:41:23;9.50;99.90
22850;DHT22;11591;44.792;10.358;2022-12-18T14:43:53;9.40;99.90
22850;DHT22;11591;44.792;10.358;2022-12-18T14:46:28;9.10;99.90
22850;DHT22;11591;44.792;10.358;2022-12-18T14:48:54;9.00;99.90
22850;DHT22;11591;44.792;10.358;2022-12-18T14:51:22;8.90;99.90
22850;DHT22;11591;44.792;10.358;2022-12-18T14:53:54;8.80;99.90
22850;DHT22;11591;44.792;10.358;2022-12-18T14:59:00;8.70;99.90
22850;DHT22;11591;44.792;10.358;2022-12-18T15:01:30;8.70;99.90
22850;DHT22;11591;44.792;10.358;2022-12-18T15:03:57;8.60;99.90
22850;DHT22;11591;44.792;10.358;2022-12-18T15:06:35;8.50;99.90
22850;DHT22;11591;44.792;10.358;2022-12-18T15:09:05;8.50;99.90
22850;DHT22;11591;44.792;10.358;2022-12-18T15:11:46;8.50;99.90
22850;DHT22;11591;44.792;10.358;2022-12-18T15:14:22;8.40;99.90
22850;DHT22;11591;44.792;10.358;2022-12-18T15:16:53;8.40;99.90
22850;DHT22;11591;44.792;10.358;2022-12-18T15:19:22;8.30;99.90
22850;DHT22;11591;44.792;10.358;2022-12-18T15:21:50;8.20;99.90
22850;DHT22;11591;44.792;10.358;2022-12-18T15:24:24;8.20;99.90
22850;DHT22;11591;44.792;10.358;2022-12-18T15:26:51;8.10;99.90
22850;DHT22;11591;44.792;10.358;2022-12-18T15:29:23;8.00;99.90
22850;DHT22;11591;44.792;10.358;2022-12-18T15:32:19;7.90;99.90
22850;DHT22;11591;44.792;10.358;2022-12-18T15:34:45;7.80;99.90
22850;DHT22;11591;44.792;10.358;2022-12-18T15:37:11;7.70;99.90
22850;DHT22;11591;44.792;10.358;2022-12-18T15:39:36;7.60;99.90
22850;DHT22;11591;44.792;10.358;2022-12-18T15:42:02;7.30;99.90
22850;DHT22;11591;44.792;10.358;2022-12-18T15:44:46;7.30;99.90
22850;DHT22;11591;44.792;10.358;2022-12-18T15:47:13;7.00;99.90
22850;DHT22;11591;44.792;10.358;2022-12-18T15:49:39;6.80;99.90
22850;DHT22;11591;44.792;10.358;2022-12-18T15:52:05;6.80;99.90
22850;DHT22;11591;44.792;10.358;2022-12-18T15:54:31;6.70;99.90
22850;DHT22;11591;44.792;10.358;2022-12-18T15:57:15;6.50;99.90
22850;DHT22;11591;44.792;10.358;2022-12-18T15:59:55;6.40;99.90
22850;DHT22;11591;44.792;10.358;2022-12-18T16:02:24;6.30;99.90
22850;DHT22;11591;44.792;10.358;2022-12-18T16:04:51;6.30;99.90
22850;DHT22;11591;44.792;10.358;2022-12-18T16:07:17;6.20;99.90
22850;DHT22;11591;44.792;10.358;2022-12-18T16:09:43;6.20;99.90
22850;DHT22;11591;44.792;10.358;2022-12-18T16:12:21;6.30;99.90
22850;DHT22;11591;44.792;10.358;2022-12-18T16:14:48;6.30;99.90
22850;DHT22;11591;44.792;10.358;2022-12-18T16:17:14;6.20;99.90
22850;DHT22;11591;44.792;10.358;2022-12-18T16:19:40;6.20;99.90
22850;DHT22;11591;44.792;10.358;2022-12-18T16:22:23;6.30;99.90
22850;DHT22;11591;44.792;10.358;2022-12-18T16:24:50;6.20;99.90
22850;DHT22;11591;44.792;10.358;2022-12-18T16:27:16;6.20;99.90
22850;DHT22;11591;44.792;10.358;2022-12-18T16:29:42;6.20;99.90
22850;DHT22;11591;44.792;10.358;2022-12-18T16:32:11;6.20;99.90
22850;DHT22;11591;44.792;10.358;2022-12-18T16:34:37;6.10;99.90
22850;DHT22;11591;44.792;10.358;2022-12-18T16:37:05;6.00;99.90
22850;DHT22;11591;44.792;10.358;2022-12-18T16:39:31;6.10;99.90
22850;DHT22;11591;44.792;10.358;2022-12-18T16:41:58;6.10;99.90
22850;DHT22;11591;44.792;10.358;2022-12-18T16:44:24;6.00;99.90
22850;DHT22;11591;44.792;10.358;2022-12-18T16:46:50;5.90;99.90
22850;DHT22;11591;44.792;10.358;2022-12-18T16:49:17;5.90;99.90
22850;DHT22;11591;44.792;10.358;2022-12-18T16:51:45;5.90;99.90
22850;DHT22;11591;44.792;10.358;2022-12-18T16:54:12;5.90;99.90
22850;DHT22;11591;44.792;10.358;2022-12-18T16:56:38;5.90;99.90
22850;DHT22;11591;44.792;10.358;2022-12-18T16:59:04;6.10;99.90
22850;DHT22;11591;44.792;10.358;2022-12-18T17:01:31;6.10;99.90
22850;DHT22;11591;44.792;10.358;2022-12-18T17:04:02;6.10;99.90
22850;DHT22;11591;44.792;10.358;2022-12-18T17:06:30;6.00;99.90
22850;DHT22;11591;44.792;10.358;2022-12-18T17:09:03;6.00;99.90
22850;DHT22;11591;44.792;10.358;2022-12-18T17:11:30;6.00;99.90
22850;DHT22;11591;44.792;10.358;2022-12-18T17:13:56;5.90;99.90
22850;DHT22;11591;44.792;10.358;2022-12-18T17:16:22;6.00;99.90
22850;DHT22;11591;44.792;10.358;2022-12-18T17:18:49;5.90;99.90
22850;DHT22;11591;44.792;10.358;2022-12-18T17:21:16;6.00;99.90
22850;DHT22;11591;44.792;10.358;2022-12-18T17:23:43;5.90;99.90
22850;DHT22;11591;44.792;10.358;2022-12-18T17:26:11;5.90;99.90
22850;DHT22;11591;44.792;10.358;2022-12-18T17:28:39;5.80;99.90
22850;DHT22;11591;44.792;10.358;2022-12-18T17:31:20;5.60;99.90
22850;DHT22;11591;44.792;10.358;2022-12-18T17:33:46;5.60;99.90
22850;DHT22;11591;44.792;10.358;2022-12-18T17:36:13;5.60;99.90
22850;DHT22;11591;44.792;10.358;2022-12-18T17:38:39;5.50;99.90